createdAt,value
2018-03-01T00:00:36.275Z,21.40
2018-03-01T00:01:36.125Z,21.90
2018-03-01T00:02:36.060Z,21.90
2018-03-01T00:03:35.947Z,23.80
2018-03-01T00:04:35.846Z,24.70
2018-03-01T00:05:35.752Z,21.60
2018-03-01T00:06:35.714Z,22.40
2018-03-01T00:07:35.513Z,25.00
2018-03-01T00:08:35.422Z,22.70
2018-03-01T00:09:35.345Z,23.50
2018-03-01T00:10:35.204Z,24.20
2018-03-01T00:11:35.122Z,23.70
2018-03-01T00:12:35.024Z,24.10
2018-03-01T00:13:34.908Z,24.70
2018-03-01T00:14:34.779Z,22.00
2018-03-01T00:15:34.713Z,22.80
2018-03-01T00:16:34.600Z,22.60
2018-03-01T00:17:34.463Z,22.80
2018-03-01T00:18:34.398Z,23.30
2018-03-01T00:19:34.250Z,24.70
2018-03-01T00:20:34.144Z,22.20
2018-03-01T00:21:34.049Z,23.10
2018-03-01T00:22:33.936Z,23.00
2018-03-01T00:23:33.841Z,22.70
2018-03-01T00:24:34.026Z,24.10
2018-03-01T00:25:33.630Z,22.40
2018-03-01T00:26:33.527Z,23.70
2018-03-01T00:27:33.424Z,21.80
2018-03-01T00:28:33.330Z,22.90
2018-03-01T00:29:33.210Z,20.70
2018-03-01T00:30:33.164Z,22.90
2018-03-01T00:31:33.037Z,23.90
2018-03-01T00:32:32.921Z,24.00
2018-03-01T00:33:32.802Z,21.60
2018-03-01T00:34:32.722Z,23.30
2018-03-01T00:35:32.627Z,24.00
2018-03-01T00:36:32.530Z,22.80
2018-03-01T00:37:32.381Z,20.40
2018-03-01T00:38:32.286Z,21.40
2018-03-01T00:39:32.197Z,22.10
2018-03-01T00:40:32.066Z,25.20
2018-03-01T00:41:32.020Z,23.40
2018-03-01T00:42:32.719Z,21.80
2018-03-01T00:43:31.740Z,24.00
2018-03-01T00:44:31.655Z,23.10
2018-03-01T00:45:31.526Z,24.20
2018-03-01T00:46:31.428Z,21.40
2018-03-01T00:47:31.315Z,22.60
2018-03-01T00:48:31.245Z,21.40
2018-03-01T00:49:31.120Z,25.10
2018-03-01T00:50:31.010Z,22.70
2018-03-01T00:51:30.901Z,22.60
2018-03-01T00:52:30.800Z,23.20
2018-03-01T00:53:30.714Z,24.20
2018-03-01T00:54:30.708Z,22.30
2018-03-01T00:55:30.628Z,22.80
2018-03-01T00:56:30.549Z,25.00
2018-03-01T00:57:30.521Z,22.50
2018-03-01T00:58:30.490Z,21.20
2018-03-01T00:59:30.327Z,23.20
2018-03-01T01:00:30.342Z,22.30
2018-03-01T01:01:30.230Z,22.00
2018-03-01T01:02:29.855Z,23.50
2018-03-01T01:03:29.661Z,21.40
2018-03-01T01:04:29.564Z,25.10
2018-03-01T01:05:29.475Z,24.90
2018-03-01T01:06:29.406Z,23.90
2018-03-01T01:07:29.231Z,24.50
2018-03-01T01:08:29.144Z,23.20
2018-03-01T01:09:29.047Z,23.30
2018-03-01T01:10:28.923Z,22.70
2018-03-01T01:11:28.828Z,23.80
2018-03-01T01:12:28.748Z,23.50
2018-03-01T01:13:28.608Z,25.90
2018-03-01T01:14:28.500Z,22.50
2018-03-01T01:15:28.402Z,22.80
2018-03-01T01:16:28.298Z,23.90
2018-03-01T01:17:28.195Z,23.90
2018-03-01T01:18:28.118Z,22.20
2018-03-01T01:19:27.976Z,22.60
2018-03-01T01:20:27.883Z,24.30
2018-03-01T01:21:27.780Z,24.20
2018-03-01T01:22:27.668Z,25.60
2018-03-01T01:23:27.602Z,23.40
2018-03-01T01:24:27.514Z,22.90
2018-03-01T01:25:27.387Z,24.90
2018-03-01T01:26:27.286Z,23.80
2018-03-01T01:27:27.186Z,22.40
2018-03-01T01:28:27.090Z,24.70
2018-03-01T01:29:26.959Z,25.20
2018-03-01T01:30:26.906Z,24.00
2018-03-01T01:31:26.749Z,24.60
2018-03-01T01:32:26.657Z,24.60
2018-03-01T01:33:26.555Z,24.80
2018-03-01T01:34:26.432Z,24.80
2018-03-01T01:35:26.361Z,22.90
2018-03-01T01:36:26.277Z,23.60
2018-03-01T01:37:26.125Z,23.40
2018-03-01T01:38:25.998Z,25.00
2018-03-01T01:39:25.885Z,23.10
2018-03-01T01:40:25.791Z,24.50
2018-03-01T01:41:25.683Z,24.00
2018-03-01T01:42:25.608Z,25.00
2018-03-01T01:43:25.493Z,23.80
2018-03-01T01:44:25.368Z,23.40
2018-03-01T01:45:25.266Z,24.70
2018-03-01T01:46:25.160Z,22.60
2018-03-01T01:47:25.058Z,23.40
2018-03-01T01:48:24.999Z,23.30
2018-03-01T01:49:24.880Z,23.40
2018-03-01T01:50:24.767Z,24.20
2018-03-01T01:51:24.630Z,24.50
2018-03-01T01:52:24.526Z,22.30
2018-03-01T01:53:24.468Z,24.00
2018-03-01T01:54:24.383Z,22.40
2018-03-01T01:55:24.220Z,24.70
2018-03-01T01:56:24.146Z,22.50
2018-03-01T01:57:24.036Z,25.90
2018-03-01T01:58:23.924Z,23.60
2018-03-01T01:59:23.837Z,26.30
2018-03-01T02:00:23.740Z,23.20
2018-03-01T02:01:23.598Z,24.10
2018-03-01T02:02:23.482Z,25.90
2018-03-01T02:03:23.385Z,25.10
2018-03-01T02:04:23.284Z,25.30
2018-03-01T02:05:23.174Z,26.40
2018-03-01T02:06:23.086Z,25.10
2018-03-01T02:07:22.961Z,25.30
2018-03-01T02:08:22.853Z,26.20
2018-03-01T02:09:22.739Z,24.70
2018-03-01T02:10:22.641Z,25.80
2018-03-01T02:11:22.549Z,25.90
2018-03-01T02:12:22.468Z,23.60
2018-03-01T02:13:22.342Z,24.40
2018-03-01T02:14:22.213Z,21.50
2018-03-01T02:15:22.138Z,25.40
2018-03-01T02:16:22.028Z,23.50
2018-03-01T02:17:21.942Z,25.30
2018-03-01T02:18:21.838Z,24.60
2018-03-01T02:19:21.726Z,23.80
2018-03-01T02:20:21.625Z,27.40
2018-03-01T02:21:21.527Z,25.60
2018-03-01T02:22:21.371Z,25.70
2018-03-01T02:23:21.284Z,21.60
2018-03-01T02:24:21.227Z,23.60
2018-03-01T02:25:21.075Z,26.30
2018-03-01T02:26:20.961Z,25.70
2018-03-01T02:27:20.869Z,23.70
2018-03-01T02:28:20.776Z,23.30
2018-03-01T02:29:20.646Z,25.10
2018-03-01T02:30:20.600Z,26.40
2018-03-01T02:31:20.441Z,24.10
2018-03-01T02:32:20.332Z,22.80
2018-03-01T02:33:20.229Z,24.40
2018-03-01T02:34:20.130Z,25.70
2018-03-01T02:35:20.003Z,26.40
2018-03-01T02:36:19.930Z,25.90
2018-03-01T02:37:19.792Z,22.50
2018-03-01T02:38:19.696Z,24.80
2018-03-01T02:39:19.590Z,25.00
2018-03-01T02:40:19.546Z,22.60
2018-03-01T02:41:19.390Z,25.20
2018-03-01T02:42:19.355Z,25.90
2018-03-01T02:43:19.218Z,25.00
2018-03-01T02:44:19.084Z,26.50
2018-03-01T02:45:18.981Z,26.90
2018-03-01T02:46:18.872Z,23.60
2018-03-01T02:47:18.772Z,24.80
2018-03-01T02:48:18.749Z,23.30
2018-03-01T02:49:18.592Z,24.10
2018-03-01T02:50:18.474Z,24.40
2018-03-01T02:51:18.351Z,25.50
2018-03-01T02:52:18.240Z,26.20
2018-03-01T02:53:18.156Z,24.50
2018-03-01T02:54:18.119Z,24.10
2018-03-01T02:55:17.911Z,23.20
2018-03-01T02:56:17.810Z,25.70
2018-03-01T02:57:17.700Z,23.10
2018-03-01T02:58:17.585Z,24.70
2018-03-01T02:59:17.495Z,27.50
2018-03-01T03:00:17.421Z,23.00
2018-03-01T03:01:17.274Z,25.30
2018-03-01T03:02:17.186Z,24.50
2018-03-01T03:03:17.066Z,24.70
2018-03-01T03:04:16.954Z,26.50
2018-03-01T03:05:16.851Z,26.50
2018-03-01T03:06:16.784Z,25.50
2018-03-01T03:07:16.640Z,26.50
2018-03-01T03:08:16.569Z,25.60
2018-03-01T03:09:16.448Z,24.90
2018-03-01T03:10:16.354Z,26.00
2018-03-01T03:11:16.259Z,23.20
2018-03-01T03:12:16.166Z,25.50
2018-03-01T03:13:16.046Z,27.60
2018-03-01T03:14:15.905Z,28.10
2018-03-01T03:15:15.805Z,26.40
2018-03-01T03:16:15.706Z,25.20
2018-03-01T03:17:15.632Z,26.40
2018-03-01T03:18:15.542Z,25.40
2018-03-01T03:19:15.425Z,25.40
2018-03-01T03:20:15.339Z,27.30
2018-03-01T03:21:15.173Z,26.40
2018-03-01T03:22:15.055Z,26.20
2018-03-01T03:23:14.954Z,25.80
2018-03-01T03:24:14.909Z,27.80
2018-03-01T03:25:14.742Z,23.20
2018-03-01T03:26:14.635Z,27.70
2018-03-01T03:27:14.529Z,26.30
2018-03-01T03:28:14.429Z,26.90
2018-03-01T03:29:14.320Z,25.40
2018-03-01T03:30:14.247Z,24.30
2018-03-01T03:31:14.113Z,27.00
2018-03-01T03:32:13.999Z,26.30
2018-03-01T03:33:13.901Z,27.50
2018-03-01T03:34:13.822Z,28.70
2018-03-01T03:35:13.697Z,28.20
2018-03-01T03:36:13.654Z,27.50
2018-03-01T03:37:13.512Z,28.60
2018-03-01T03:38:13.383Z,26.40
2018-03-01T03:39:13.308Z,24.40
2018-03-01T03:40:13.172Z,24.20
2018-03-01T03:41:13.058Z,27.20
2018-03-01T03:42:13.051Z,25.60
2018-03-01T03:43:12.868Z,26.30
2018-03-01T03:44:12.794Z,27.90
2018-03-01T03:45:12.673Z,28.90
2018-03-01T03:46:12.541Z,27.70
2018-03-01T03:47:12.422Z,27.70
2018-03-01T03:48:12.355Z,26.80
2018-03-01T03:49:12.215Z,23.80
2018-03-01T03:50:12.111Z,25.30
2018-03-01T03:51:11.998Z,26.80
2018-03-01T03:52:11.898Z,27.10
2018-03-01T03:53:11.800Z,27.10
2018-03-01T03:54:11.713Z,27.10
2018-03-01T03:55:11.586Z,26.10
2018-03-01T03:56:11.482Z,26.10
2018-03-01T03:57:11.427Z,28.20
2018-03-01T03:58:11.271Z,26.70
2018-03-01T03:59:11.186Z,27.60
2018-03-01T04:00:11.106Z,26.90
2018-03-01T04:01:10.970Z,27.80
2018-03-01T04:02:10.868Z,29.60
2018-03-01T04:03:10.764Z,26.80
2018-03-01T04:04:10.649Z,25.90
2018-03-01T04:05:10.540Z,24.90
2018-03-01T04:06:10.487Z,25.00
2018-03-01T04:07:10.341Z,26.00
2018-03-01T04:08:10.235Z,27.30
2018-03-01T04:09:10.125Z,28.20
2018-03-01T04:10:10.043Z,26.90
2018-03-01T04:11:09.894Z,26.10
2018-03-01T04:12:09.823Z,27.10
2018-03-01T04:13:09.681Z,27.70
2018-03-01T04:14:09.582Z,27.90
2018-03-01T04:15:09.470Z,29.80
2018-03-01T04:16:09.374Z,22.30
2018-03-01T04:17:09.270Z,29.10
2018-03-01T04:18:09.206Z,28.30
2018-03-01T04:19:09.059Z,27.00
2018-03-01T04:20:08.957Z,27.70
2018-03-01T04:21:08.837Z,29.20
2018-03-01T04:22:08.746Z,27.00
2018-03-01T04:23:08.633Z,27.50
2018-03-01T04:24:08.583Z,27.30
2018-03-01T04:25:08.537Z,29.00
2018-03-01T04:26:08.334Z,30.00
2018-03-01T04:27:08.230Z,26.70
2018-03-01T04:28:08.135Z,26.40
2018-03-01T04:29:08.016Z,27.00
2018-03-01T04:30:07.921Z,27.40
2018-03-01T04:31:07.804Z,26.60
2018-03-01T04:32:07.696Z,29.10
2018-03-01T04:33:07.593Z,27.40
2018-03-01T04:34:07.504Z,27.60
2018-03-01T04:35:07.440Z,23.40
2018-03-01T04:36:07.380Z,29.10
2018-03-01T04:37:07.152Z,28.40
2018-03-01T04:38:07.056Z,27.60
2018-03-01T04:39:06.954Z,26.80
2018-03-01T04:40:06.853Z,27.10
2018-03-01T04:41:06.724Z,25.50
2018-03-01T04:42:06.662Z,28.60
2018-03-01T04:43:06.549Z,34.80
2018-03-01T04:44:06.417Z,35.00
2018-03-01T04:45:06.345Z,36.70
2018-03-01T04:46:06.206Z,56.00
2018-03-01T04:47:06.104Z,72.60
2018-03-01T04:48:06.030Z,40.10
2018-03-01T04:49:05.926Z,36.50
2018-03-01T04:50:05.814Z,43.30
2018-03-01T04:51:05.714Z,42.20
2018-03-01T04:52:05.644Z,33.50
2018-03-01T04:53:05.513Z,32.90
2018-03-01T04:54:05.474Z,29.70
2018-03-01T04:55:05.286Z,30.70
2018-03-01T04:56:05.188Z,27.60
2018-03-01T04:57:05.082Z,30.60
2018-03-01T04:58:04.985Z,30.10
2018-03-01T04:59:04.854Z,28.90
2018-03-01T05:00:04.788Z,26.30
2018-03-01T05:01:04.622Z,28.00
2018-03-01T05:02:04.535Z,28.00
2018-03-01T05:03:04.411Z,29.20
2018-03-01T05:04:04.335Z,28.60
2018-03-01T05:05:04.204Z,25.00
2018-03-01T05:06:04.153Z,29.70
2018-03-01T05:07:04.000Z,28.80
2018-03-01T05:08:03.914Z,27.90
2018-03-01T05:09:03.782Z,26.00
2018-03-01T05:10:03.687Z,29.20
2018-03-01T05:11:03.571Z,28.00
2018-03-01T05:12:03.539Z,28.90
2018-03-01T05:13:03.385Z,27.90
2018-03-01T05:14:03.310Z,28.90
2018-03-01T05:15:03.184Z,29.40
2018-03-01T05:16:03.071Z,27.10
2018-03-01T05:17:03.199Z,32.20
2018-03-01T05:18:02.891Z,33.50
2018-03-01T05:19:02.761Z,32.60
2018-03-01T05:20:02.656Z,30.60
2018-03-01T05:21:02.610Z,34.30
2018-03-01T05:22:02.466Z,32.10
2018-03-01T05:23:02.340Z,33.90
2018-03-01T05:24:05.530Z,31.90
2018-03-01T05:25:02.154Z,35.10
2018-03-01T05:26:02.001Z,33.90
2018-03-01T05:27:01.915Z,34.70
2018-03-01T05:28:01.780Z,35.10
2018-03-01T05:29:01.662Z,33.10
2018-03-01T05:30:01.628Z,33.00
2018-03-01T05:31:01.468Z,32.10
2018-03-01T05:32:01.372Z,34.10
2018-03-01T05:33:01.246Z,32.30
2018-03-01T05:34:01.142Z,32.30
2018-03-01T05:35:01.023Z,30.90
2018-03-01T05:36:00.963Z,32.20
2018-03-01T05:37:00.836Z,29.10
2018-03-01T05:38:00.734Z,31.40
2018-03-01T05:39:00.627Z,33.50
2018-03-01T05:40:00.546Z,31.80
2018-03-01T05:41:00.451Z,32.20
2018-03-01T05:42:00.351Z,33.10
2018-03-01T05:43:00.202Z,31.50
2018-03-01T05:44:01.748Z,29.20
2018-03-01T05:45:00.030Z,35.20
2018-03-01T05:45:59.937Z,32.40
2018-03-01T05:46:59.775Z,32.50
2018-03-01T05:47:59.754Z,28.30
2018-03-01T05:48:59.586Z,33.40
2018-03-01T05:49:59.491Z,31.90
2018-03-01T05:50:59.346Z,30.70
2018-03-01T05:51:59.252Z,32.80
2018-03-01T05:52:59.136Z,33.60
2018-03-01T05:53:59.096Z,29.70
2018-03-01T05:54:58.987Z,31.40
2018-03-01T05:55:58.842Z,31.40
2018-03-01T05:56:58.757Z,32.50
2018-03-01T05:57:58.620Z,29.20
2018-03-01T05:58:58.526Z,27.80
2018-03-01T05:59:58.457Z,29.60
2018-03-01T06:00:58.322Z,30.70
2018-03-01T06:01:58.181Z,39.00
2018-03-01T06:02:58.095Z,37.80
2018-03-01T06:03:57.991Z,33.40
2018-03-01T06:04:57.890Z,31.10
2018-03-01T06:05:57.824Z,29.10
2018-03-01T06:06:57.667Z,30.30
2018-03-01T06:07:57.600Z,30.70
2018-03-01T06:08:57.476Z,30.80
2018-03-01T06:09:57.387Z,31.40
2018-03-01T06:10:57.273Z,27.20
2018-03-01T06:11:57.172Z,30.80
2018-03-01T06:12:57.032Z,32.60
2018-03-01T06:13:56.965Z,32.10
2018-03-01T06:14:56.826Z,31.60
2018-03-01T06:15:56.742Z,29.30
2018-03-01T06:16:56.613Z,31.40
2018-03-01T06:17:56.549Z,30.00
2018-03-01T06:18:56.418Z,31.60
2018-03-01T06:19:56.293Z,31.60
2018-03-01T06:20:56.227Z,30.50
2018-03-01T06:21:56.094Z,28.80
2018-03-01T06:22:55.976Z,31.30
2018-03-01T06:23:55.900Z,32.60
2018-03-01T06:24:55.763Z,31.20
2018-03-01T06:25:55.686Z,31.90
2018-03-01T06:26:55.549Z,29.90
2018-03-01T06:27:55.443Z,30.40
2018-03-01T06:28:55.342Z,33.00
2018-03-01T06:29:55.244Z,30.80
2018-03-01T06:30:55.155Z,30.30
2018-03-01T06:31:55.041Z,30.10
2018-03-01T06:32:54.944Z,28.00
2018-03-01T06:33:54.835Z,29.50
2018-03-01T06:34:54.755Z,27.10
2018-03-01T06:35:54.640Z,29.20
2018-03-01T06:36:54.530Z,27.80
2018-03-01T06:37:54.403Z,26.30
2018-03-01T06:38:54.285Z,28.20
2018-03-01T06:39:54.207Z,31.00
2018-03-01T06:40:54.123Z,26.10
2018-03-01T06:41:54.073Z,27.40
2018-03-01T06:42:53.894Z,29.20
2018-03-01T06:43:53.764Z,30.50
2018-03-01T06:44:53.660Z,27.40
2018-03-01T06:45:53.550Z,29.50
2018-03-01T06:46:53.452Z,29.10
2018-03-01T06:47:53.367Z,26.90
2018-03-01T06:48:53.229Z,31.30
2018-03-01T06:49:53.125Z,31.40
2018-03-01T06:50:53.020Z,30.10
2018-03-01T06:51:52.913Z,31.10
2018-03-01T06:52:52.828Z,27.90
2018-03-01T06:53:52.752Z,28.30
2018-03-01T06:54:52.603Z,28.60
2018-03-01T06:55:52.505Z,29.70
2018-03-01T06:56:52.403Z,28.60
2018-03-01T06:57:52.361Z,30.70
2018-03-01T06:58:52.178Z,30.90
2018-03-01T06:59:52.145Z,29.40
2018-03-01T07:00:51.985Z,28.80
2018-03-01T07:01:51.876Z,28.40
2018-03-01T07:02:51.799Z,29.00
2018-03-01T07:03:51.675Z,31.30
2018-03-01T07:04:51.588Z,30.10
2018-03-01T07:05:51.492Z,30.10
2018-03-01T07:06:51.393Z,32.10
2018-03-01T07:07:51.275Z,30.10
2018-03-01T07:08:51.160Z,29.00
2018-03-01T07:09:51.025Z,27.40
2018-03-01T07:10:50.925Z,30.80
2018-03-01T07:11:50.884Z,31.00
2018-03-01T07:12:50.714Z,29.20
2018-03-01T07:13:50.628Z,30.90
2018-03-01T07:14:50.504Z,29.70
2018-03-01T07:15:50.392Z,28.90
2018-03-01T07:16:50.298Z,29.60
2018-03-01T07:17:50.236Z,28.10
2018-03-01T07:18:50.083Z,30.80
2018-03-01T07:19:49.984Z,28.80
2018-03-01T07:20:49.871Z,27.10
2018-03-01T07:21:49.768Z,31.40
2018-03-01T07:22:49.679Z,31.20
2018-03-01T07:23:49.622Z,27.50
2018-03-01T07:24:49.451Z,29.90
2018-03-01T07:25:49.371Z,28.90
2018-03-01T07:26:49.294Z,27.50
2018-03-01T07:27:49.168Z,29.30
2018-03-01T07:28:49.088Z,28.60
2018-03-01T07:29:48.985Z,31.10
2018-03-01T07:30:48.872Z,28.00
2018-03-01T07:31:48.771Z,27.70
2018-03-01T07:32:48.645Z,27.90
2018-03-01T07:33:48.558Z,28.70
2018-03-01T07:34:48.484Z,28.20
2018-03-01T07:35:48.430Z,28.80
2018-03-01T07:36:48.209Z,28.50
2018-03-01T07:37:48.115Z,28.00
2018-03-01T07:38:48.014Z,29.70
2018-03-01T07:39:47.925Z,27.50
2018-03-01T07:40:47.811Z,30.90
2018-03-01T07:41:47.746Z,31.70
2018-03-01T07:42:47.607Z,28.30
2018-03-01T07:43:47.505Z,27.00
2018-03-01T07:44:47.388Z,31.90
2018-03-01T07:45:47.293Z,30.90
2018-03-01T07:46:47.187Z,27.60
2018-03-01T07:47:47.128Z,27.70
2018-03-01T07:48:46.992Z,27.60
2018-03-01T07:49:46.928Z,28.50
2018-03-01T07:50:46.814Z,26.50
2018-03-01T07:51:46.710Z,28.10
2018-03-01T07:52:46.604Z,29.30
2018-03-01T07:53:46.541Z,28.00
2018-03-01T07:54:46.426Z,31.20
2018-03-01T07:55:46.306Z,31.30
2018-03-01T07:56:46.370Z,28.50
2018-03-01T07:57:46.119Z,26.00
2018-03-01T07:58:46.014Z,26.70
2018-03-01T07:59:45.952Z,26.90
2018-03-01T08:00:45.808Z,27.00
2018-03-01T08:01:45.708Z,31.20
2018-03-01T08:02:45.580Z,29.70
2018-03-01T08:03:45.483Z,28.40
2018-03-01T08:04:45.362Z,29.30
2018-03-01T08:05:45.304Z,27.60
2018-03-01T08:06:45.160Z,28.10
2018-03-01T08:07:45.062Z,26.70
2018-03-01T08:08:44.972Z,28.40
2018-03-01T08:09:44.854Z,29.40
2018-03-01T08:10:44.743Z,28.60
2018-03-01T08:11:44.935Z,27.10
2018-03-01T08:12:44.569Z,27.00
2018-03-01T08:13:44.445Z,26.00
2018-03-01T08:14:44.341Z,28.90
2018-03-01T08:15:44.253Z,28.80
2018-03-01T08:16:44.205Z,25.30
2018-03-01T08:17:44.090Z,25.30
2018-03-01T08:18:43.953Z,26.60
2018-03-01T08:19:43.873Z,24.80
2018-03-01T08:20:43.774Z,28.40
2018-03-01T08:21:43.668Z,21.60
2018-03-01T08:22:43.564Z,26.50
2018-03-01T08:23:43.496Z,25.90
2018-03-01T08:24:43.374Z,29.00
2018-03-01T08:25:43.265Z,26.40
2018-03-01T08:26:43.184Z,24.70
2018-03-01T08:27:43.073Z,26.60
2018-03-01T08:28:42.939Z,28.70
2018-03-01T08:29:42.895Z,25.90
2018-03-01T08:30:42.740Z,25.30
2018-03-01T08:31:42.641Z,29.00
2018-03-01T08:32:42.540Z,27.70
2018-03-01T08:33:42.438Z,27.50
2018-03-01T08:34:42.372Z,26.10
2018-03-01T08:35:42.295Z,26.00
2018-03-01T08:36:42.147Z,25.00
2018-03-01T08:37:42.050Z,26.30
2018-03-01T08:38:41.968Z,25.80
2018-03-01T08:39:41.850Z,27.30
2018-03-01T08:40:41.746Z,26.80
2018-03-01T08:41:41.691Z,25.10
2018-03-01T08:42:41.571Z,24.80
2018-03-01T08:43:41.462Z,23.60
2018-03-01T08:44:41.400Z,24.40
2018-03-01T08:45:41.290Z,24.70
2018-03-01T08:46:41.172Z,25.00
2018-03-01T08:47:41.128Z,23.10
2018-03-01T08:48:41.046Z,25.50
2018-03-01T08:49:40.895Z,23.90
2018-03-01T08:50:40.789Z,24.60
2018-03-01T08:51:40.710Z,24.60
2018-03-01T08:52:40.598Z,24.00
2018-03-01T08:53:40.523Z,24.20
2018-03-01T08:54:40.403Z,25.10
2018-03-01T08:55:40.290Z,24.20
2018-03-01T08:56:40.193Z,26.30
2018-03-01T08:57:40.130Z,26.00
2018-03-01T08:58:40.001Z,23.90
2018-03-01T08:59:39.920Z,24.30
2018-03-01T09:00:39.843Z,23.90
2018-03-01T09:01:39.699Z,24.80
2018-03-01T09:02:39.600Z,24.10
2018-03-01T09:03:39.503Z,23.50
2018-03-01T09:04:39.432Z,23.50
2018-03-01T09:05:39.368Z,25.30
2018-03-01T09:06:39.217Z,22.00
2018-03-01T09:07:39.131Z,23.60
2018-03-01T09:08:39.040Z,24.30
2018-03-01T09:09:38.952Z,24.60
2018-03-01T09:10:38.872Z,25.10
2018-03-01T09:11:38.803Z,24.60
2018-03-01T09:12:38.669Z,23.40
2018-03-01T09:13:38.563Z,21.60
2018-03-01T09:14:38.532Z,21.80
2018-03-01T09:15:38.370Z,23.50
2018-03-01T09:16:38.290Z,24.30
2018-03-01T09:17:38.271Z,22.10
2018-03-01T09:18:38.093Z,24.00
2018-03-01T09:19:37.994Z,24.90
2018-03-01T09:20:37.933Z,21.90
2018-03-01T09:21:37.833Z,21.60
2018-03-01T09:22:37.696Z,21.00
2018-03-01T09:23:37.652Z,22.40
2018-03-01T09:24:37.525Z,22.30
2018-03-01T09:25:37.432Z,22.40
2018-03-01T09:26:37.318Z,21.80
2018-03-01T09:27:37.285Z,21.90
2018-03-01T09:28:37.149Z,20.40
2018-03-01T09:29:37.078Z,21.80
2018-03-01T09:30:36.959Z,22.40
2018-03-01T09:31:36.852Z,21.70
2018-03-01T09:32:36.733Z,22.80
2018-03-01T09:33:36.660Z,21.70
2018-03-01T09:34:36.539Z,23.50
2018-03-01T09:35:36.508Z,23.10
2018-03-01T09:36:36.402Z,22.90
2018-03-01T09:37:36.281Z,24.70
2018-03-01T09:38:36.171Z,24.30
2018-03-01T09:39:36.115Z,23.80
2018-03-01T09:40:36.118Z,22.30
2018-03-01T09:41:35.936Z,24.10
2018-03-01T09:42:35.832Z,24.20
2018-03-01T09:43:35.710Z,25.70
2018-03-01T09:44:35.626Z,24.50
2018-03-01T09:45:35.537Z,23.50
2018-03-01T09:46:35.431Z,24.60
2018-03-01T09:47:35.354Z,23.20
2018-03-01T09:48:35.235Z,25.20
2018-03-01T09:49:35.136Z,23.60
2018-03-01T09:50:35.037Z,22.30
2018-03-01T09:51:34.952Z,27.70
2018-03-01T09:52:34.867Z,23.80
2018-03-01T09:53:34.780Z,23.80
2018-03-01T09:54:34.684Z,23.20
2018-03-01T09:55:34.591Z,26.60
2018-03-01T09:56:34.509Z,22.70
2018-03-01T09:57:34.383Z,24.30
2018-03-01T09:58:34.290Z,23.90
2018-03-01T09:59:34.274Z,21.80
2018-03-01T10:00:34.099Z,22.50
2018-03-01T10:01:34.014Z,23.30
2018-03-01T10:02:33.932Z,24.30
2018-03-01T10:03:33.853Z,23.30
2018-03-01T10:04:33.741Z,23.20
2018-03-01T10:05:34.563Z,21.40
2018-03-01T10:06:33.558Z,20.30
2018-03-01T10:07:33.462Z,21.50
2018-03-01T10:08:33.376Z,21.60
2018-03-01T10:09:33.291Z,21.40
2018-03-01T10:10:33.188Z,22.00
2018-03-01T10:11:33.121Z,23.90
2018-03-01T10:12:33.026Z,22.90
2018-03-01T10:13:32.893Z,24.80
2018-03-01T10:14:32.786Z,20.30
2018-03-01T10:15:32.688Z,23.30
2018-03-01T10:16:32.599Z,21.90
2018-03-01T10:17:32.543Z,23.20
2018-03-01T10:18:32.432Z,21.80
2018-03-01T10:19:32.364Z,22.00
2018-03-01T10:20:32.230Z,22.00
2018-03-01T10:21:32.142Z,22.00
2018-03-01T10:22:32.049Z,21.00
2018-03-01T10:23:32.011Z,20.30
2018-03-01T10:24:31.851Z,20.60
2018-03-01T10:25:31.779Z,21.00
2018-03-01T10:26:31.685Z,23.40
2018-03-01T10:27:31.599Z,21.80
2018-03-01T10:28:31.515Z,22.50
2018-03-01T10:29:31.499Z,23.40
2018-03-01T10:30:31.328Z,20.50
2018-03-01T10:31:31.289Z,22.80
2018-03-01T10:32:31.142Z,23.00
2018-03-01T10:33:31.045Z,24.40
2018-03-01T10:34:30.983Z,24.20
2018-03-01T10:35:30.896Z,24.90
2018-03-01T10:36:30.766Z,24.60
2018-03-01T10:37:30.672Z,23.00
2018-03-01T10:38:30.627Z,24.20
2018-03-01T10:39:30.474Z,23.40
2018-03-01T10:40:30.384Z,22.50
2018-03-01T10:41:30.320Z,23.10
2018-03-01T10:42:30.207Z,23.50
2018-03-01T10:43:30.097Z,23.90
2018-03-01T10:44:29.989Z,23.20
2018-03-01T10:45:29.892Z,22.60
2018-03-01T10:46:29.826Z,22.70
2018-03-01T10:47:29.758Z,24.00
2018-03-01T10:48:29.639Z,23.70
2018-03-01T10:49:29.537Z,23.80
2018-03-01T10:50:29.449Z,23.00
2018-03-01T10:51:29.331Z,24.40
2018-03-01T10:52:29.232Z,24.60
2018-03-01T10:53:29.211Z,21.80
2018-03-01T10:54:29.124Z,23.50
2018-03-01T10:55:28.975Z,22.50
2018-03-01T10:56:28.918Z,20.20
2018-03-01T10:57:28.788Z,22.30
2018-03-01T10:58:28.744Z,23.60
2018-03-01T10:59:28.664Z,23.20
2018-03-01T11:00:28.529Z,22.20
2018-03-01T11:01:28.414Z,23.20
2018-03-01T11:02:28.334Z,23.40
2018-03-01T11:03:28.230Z,20.00
2018-03-01T11:04:28.127Z,22.90
2018-03-01T11:05:28.078Z,21.90
2018-03-01T11:06:27.933Z,23.50
2018-03-01T11:07:27.825Z,22.80
2018-03-01T11:08:27.751Z,21.10
2018-03-01T11:09:27.646Z,22.00
2018-03-01T11:10:27.597Z,21.20
2018-03-01T11:11:27.509Z,21.50
2018-03-01T11:12:27.351Z,21.70
2018-03-01T11:13:27.274Z,21.90
2018-03-01T11:14:27.186Z,22.80
2018-03-01T11:15:27.137Z,22.90
2018-03-01T11:16:26.995Z,24.00
2018-03-01T11:17:26.915Z,22.90
2018-03-01T11:18:26.798Z,23.40
2018-03-01T11:19:26.708Z,24.80
2018-03-01T11:20:26.639Z,23.60
2018-03-01T11:21:26.552Z,22.70
2018-03-01T11:22:26.450Z,23.20
2018-03-01T11:23:26.384Z,22.00
2018-03-01T11:24:26.251Z,22.90
2018-03-01T11:25:26.160Z,23.00
2018-03-01T11:26:26.068Z,21.80
2018-03-01T11:27:25.996Z,23.40
2018-03-01T11:28:25.899Z,21.30
2018-03-01T11:29:25.858Z,23.80
2018-03-01T11:30:25.713Z,22.10
2018-03-01T11:31:25.620Z,22.20
2018-03-01T11:32:25.529Z,22.90
2018-03-01T11:33:25.408Z,25.00
2018-03-01T11:34:25.316Z,23.60
2018-03-01T11:35:25.243Z,23.00
2018-03-01T11:36:25.125Z,22.40
2018-03-01T11:37:25.041Z,22.70
2018-03-01T11:38:24.960Z,24.10
2018-03-01T11:39:24.827Z,23.70
2018-03-01T11:40:24.753Z,21.90
2018-03-01T11:41:24.694Z,23.00
2018-03-01T11:42:24.558Z,22.10
2018-03-01T11:43:24.448Z,23.00
2018-03-01T11:44:24.359Z,23.70
2018-03-01T11:45:24.293Z,21.70
2018-03-01T11:46:24.187Z,20.80
2018-03-01T11:47:24.169Z,23.10
2018-03-01T11:48:23.993Z,22.30
2018-03-01T11:49:23.934Z,22.30
2018-03-01T11:50:23.839Z,21.20
2018-03-01T11:51:23.752Z,22.00
2018-03-01T11:52:23.617Z,22.40
2018-03-01T11:53:23.588Z,21.90
2018-03-01T11:54:23.464Z,22.60
2018-03-01T11:55:23.370Z,24.10
2018-03-01T11:56:23.272Z,22.10
2018-03-01T11:57:23.212Z,22.10
2018-03-01T11:58:23.092Z,21.20
2018-03-01T11:59:23.055Z,21.80
2018-03-01T12:00:22.880Z,20.80
2018-03-01T12:01:22.781Z,21.30
2018-03-01T12:02:22.688Z,21.60
2018-03-01T12:03:22.601Z,21.80
2018-03-01T12:04:22.526Z,20.10
2018-03-01T12:05:22.494Z,21.40
2018-03-01T12:06:22.314Z,20.40
2018-03-01T12:07:22.227Z,21.30
2018-03-01T12:08:22.153Z,20.60
2018-03-01T12:09:22.041Z,21.50
2018-03-01T12:10:21.931Z,20.60
2018-03-01T12:11:21.892Z,20.40
2018-03-01T12:12:21.760Z,20.30
2018-03-01T12:13:21.709Z,21.80
2018-03-01T12:14:21.565Z,20.50
2018-03-01T12:15:21.482Z,20.20
2018-03-01T12:16:22.081Z,22.80
2018-03-01T12:17:21.448Z,20.30
2018-03-01T12:18:21.241Z,19.50
2018-03-01T12:19:21.141Z,21.50
2018-03-01T12:20:21.030Z,20.30
2018-03-01T12:21:20.977Z,20.20
2018-03-01T12:22:20.875Z,19.50
2018-03-01T12:23:20.901Z,18.90
2018-03-01T12:24:20.660Z,19.30
2018-03-01T12:25:20.539Z,20.30
2018-03-01T12:26:20.436Z,19.20
2018-03-01T12:27:20.360Z,19.30
2018-03-01T12:28:20.266Z,19.80
2018-03-01T12:29:20.187Z,20.20
2018-03-01T12:30:20.060Z,19.70
2018-03-01T12:31:19.983Z,19.70
2018-03-01T12:32:19.874Z,19.70
2018-03-01T12:33:19.789Z,20.40
2018-03-01T12:34:19.697Z,21.60
2018-03-01T12:35:19.621Z,19.70
2018-03-01T12:36:19.510Z,19.80
2018-03-01T12:37:19.432Z,18.70
2018-03-01T12:38:19.342Z,19.20
2018-03-01T12:39:19.242Z,18.90
2018-03-01T12:40:19.179Z,20.10
2018-03-01T12:41:19.388Z,20.80
2018-03-01T12:42:18.995Z,25.60
2018-03-01T12:43:18.872Z,25.20
2018-03-01T12:44:18.783Z,20.50
2018-03-01T12:45:18.878Z,18.60
2018-03-01T12:46:18.608Z,17.80
2018-03-01T12:47:18.616Z,18.40
2018-03-01T12:48:18.413Z,20.50
2018-03-01T12:49:18.337Z,19.30
2018-03-01T12:50:18.229Z,18.00
2018-03-01T12:51:18.142Z,20.30